MSC Susanna — 3ECU4 — position and weather

sailwx.info

Track history (hours):
 
Tides and Currents Weather Stations Pressure Air Temp Water Temp Dewpoint Dewpoint Depression Visibility Wind Speed Wind Dir Waves Ship Positions

MSC Susanna

Last reported at 2016-Dec-10 00:07 UTC. Time now 2016-Dec-10 12:53 UTC.
Position N 30°29' E 122°45'.

Length 337 m; draft 12.1 m.

Type: Ship (hazmat cat A). MMSI: 371466000.

Date/timePositionNaut miles runAvg speedWind from/ knotsBaromVisibWave heightAir tempDewpointWater temp
2016-Dec-10 00:07N 30°29' E 122°45'5 8.9
2016-Dec-09 23:33N 30°31' E 122°50'  
2016-Dec-07 06:33N 38°27' E 121°08'1313.4
2016-Dec-07 05:33N 38°33' E 120°53'1111.1
2016-Dec-07 04:33N 38°35' E 120°39'10219.6
2016-Dec-06 23:21N 38°49' E 118°29'2212.0
2016-Dec-06 21:31N 38°56' E 118°02'1111.5
2016-Dec-06 20:34N 38°58' E 117°48'2 0.9
2016-Dec-06 18:31N 38°60' E 117°47'0 0.0
2016-Dec-06 17:25N 38°60' E 117°47'0 0.0
2016-Dec-06 16:31N 38°60' E 117°47'0 0.0
2016-Dec-06 15:12N 38°60' E 117°47'0 0.0
2016-Dec-06 14:30N 38°60' E 117°47'0 0.0
2016-Dec-06 13:30N 38°60' E 117°47'0 0.0
2016-Dec-06 12:24N 38°60' E 117°47'0 0.0
2016-Dec-06 11:30N 38°60' E 117°47'0 0.0
2016-Dec-06 10:30N 38°60' E 117°47'0 0.0
2016-Dec-06 09:18N 38°60' E 117°47'0 0.0
2016-Dec-06 08:30N 38°60' E 117°47'0 0.0
2016-Dec-06 07:30N 38°60' E 117°47'0 0.0
2016-Dec-06 06:30N 38°60' E 117°47'0 0.0
2016-Dec-06 05:30N 38°60' E 117°47'0 0.0
2016-Dec-06 04:24N 38°60' E 117°47'0 0.0
2016-Dec-06 03:30N 38°60' E 117°47'0 0.0
2016-Dec-06 02:30N 38°60' E 117°47'0 0.0
2016-Dec-06 00:24N 38°60' E 117°47'0 0.0
2016-Dec-05 23:30N 38°60' E 117°47'0 0.0
2016-Dec-05 22:30N 38°60' E 117°47'0 0.0
2016-Dec-05 21:30N 38°60' E 117°47'0 0.0
2016-Dec-05 20:30N 38°60' E 117°47'0 0.0
2016-Dec-05 19:30N 38°60' E 117°47'0 0.0
2016-Dec-05 15:30N 38°60' E 117°47'0 0.0
2016-Dec-05 14:30N 38°60' E 117°47'0 0.0
2016-Dec-05 13:30N 38°60' E 117°47'0 0.0
2016-Dec-05 12:24N 38°60' E 117°47'0 0.0
2016-Dec-05 11:30N 38°60' E 117°47'0 0.0
2016-Dec-05 10:30N 38°60' E 117°47'0 0.0
2016-Dec-05 09:30N 38°60' E 117°47'0 0.0
2016-Dec-05 08:12N 38°60' E 117°47'0 0.0
2016-Dec-05 07:30N 38°60' E 117°47'0 0.0
2016-Dec-05 06:30N 38°60' E 117°47'0 0.0
2016-Dec-05 05:30N 38°60' E 117°47'0 0.0
2016-Dec-05 04:30N 38°60' E 117°47'0 0.0
2016-Dec-05 03:29N 38°60' E 117°47'0 0.0
2016-Dec-05 02:29N 38°60' E 117°47'0 0.0
2016-Dec-05 01:29N 38°60' E 117°47'0 0.0
2016-Dec-05 00:29N 38°60' E 117°47'0 0.0
2016-Dec-04 23:29N 38°60' E 117°47'0 0.0
2016-Dec-04 22:05N 38°60' E 117°47'0 0.0
2016-Dec-04 18:29N 38°60' E 117°47'0 0.0
2016-Dec-04 17:31N 38°60' E 117°47'2 2.2
2016-Dec-04 16:32N 38°58' E 117°49'7 6.8
2016-Dec-04 15:33N 38°57' E 117°58'8 8.2
2016-Dec-04 14:33N 38°55' E 118°08'9 7.4
2016-Dec-04 13:22N 38°53' E 118°19'10812.2
2016-Dec-04 04:33N 38°38' E 120°36'1211.9
2016-Dec-04 03:33N 38°37' E 120°51'9 9.2
2016-Dec-04 02:33N 38°34' E 121°02'1212.2
2016-Dec-04 01:33N 38°28' E 121°15'  
Track history (hours):
 
Tides and Currents Weather Stations Pressure Air Temp Water Temp Dewpoint Dewpoint Depression Visibility Wind Speed Wind Dir Waves Ship Positions

MSC Susanna

Last reported at 2016-Dec-10 00:07 UTC. Time now 2016-Dec-10 12:53 UTC.
Position N 30°29' E 122°45'.

Length 337 m; draft 12.1 m.

Type: Ship (hazmat cat A). MMSI: 371466000.

Date/timePositionNaut miles runAvg speedWind from/ knotsBaromVisibWave heightAir tempDewpointWater temp
2016-Dec-10 00:07N 30°29' E 122°45'5 8.9
2016-Dec-09 23:33N 30°31' E 122°50'  
2016-Dec-07 06:33N 38°27' E 121°08'1313.4
2016-Dec-07 05:33N 38°33' E 120°53'1111.1
2016-Dec-07 04:33N 38°35' E 120°39'10219.6
2016-Dec-06 23:21N 38°49' E 118°29'2212.0
2016-Dec-06 21:31N 38°56' E 118°02'1111.5
2016-Dec-06 20:34N 38°58' E 117°48'2 0.9
2016-Dec-06 18:31N 38°60' E 117°47'0 0.0
2016-Dec-06 17:25N 38°60' E 117°47'0 0.0
2016-Dec-06 16:31N 38°60' E 117°47'0 0.0
2016-Dec-06 15:12N 38°60' E 117°47'0 0.0
2016-Dec-06 14:30N 38°60' E 117°47'0 0.0
2016-Dec-06 13:30N 38°60' E 117°47'0 0.0
2016-Dec-06 12:24N 38°60' E 117°47'0 0.0
2016-Dec-06 11:30N 38°60' E 117°47'0 0.0
2016-Dec-06 10:30N 38°60' E 117°47'0 0.0
2016-Dec-06 09:18N 38°60' E 117°47'0 0.0
2016-Dec-06 08:30N 38°60' E 117°47'0 0.0
2016-Dec-06 07:30N 38°60' E 117°47'0 0.0
2016-Dec-06 06:30N 38°60' E 117°47'0 0.0
2016-Dec-06 05:30N 38°60' E 117°47'0 0.0
2016-Dec-06 04:24N 38°60' E 117°47'0 0.0
2016-Dec-06 03:30N 38°60' E 117°47'0 0.0
2016-Dec-06 02:30N 38°60' E 117°47'0 0.0
2016-Dec-06 00:24N 38°60' E 117°47'0 0.0
2016-Dec-05 23:30N 38°60' E 117°47'0 0.0
2016-Dec-05 22:30N 38°60' E 117°47'0 0.0
2016-Dec-05 21:30N 38°60' E 117°47'0 0.0
2016-Dec-05 20:30N 38°60' E 117°47'0 0.0
2016-Dec-05 19:30N 38°60' E 117°47'0 0.0
2016-Dec-05 15:30N 38°60' E 117°47'0 0.0
2016-Dec-05 14:30N 38°60' E 117°47'0 0.0
2016-Dec-05 13:30N 38°60' E 117°47'0 0.0
2016-Dec-05 12:24N 38°60' E 117°47'0 0.0
2016-Dec-05 11:30N 38°60' E 117°47'0 0.0
2016-Dec-05 10:30N 38°60' E 117°47'0 0.0
2016-Dec-05 09:30N 38°60' E 117°47'0 0.0
2016-Dec-05 08:12N 38°60' E 117°47'0 0.0
2016-Dec-05 07:30N 38°60' E 117°47'0 0.0
2016-Dec-05 06:30N 38°60' E 117°47'0 0.0
2016-Dec-05 05:30N 38°60' E 117°47'0 0.0
2016-Dec-05 04:30N 38°60' E 117°47'0 0.0
2016-Dec-05 03:29N 38°60' E 117°47'0 0.0
2016-Dec-05 02:29N 38°60' E 117°47'0 0.0
2016-Dec-05 01:29N 38°60' E 117°47'0 0.0
2016-Dec-05 00:29N 38°60' E 117°47'0 0.0
2016-Dec-04 23:29N 38°60' E 117°47'0 0.0
2016-Dec-04 22:05N 38°60' E 117°47'0 0.0
2016-Dec-04 18:29N 38°60' E 117°47'0 0.0
2016-Dec-04 17:31N 38°60' E 117°47'2 2.2
2016-Dec-04 16:32N 38°58' E 117°49'7 6.8
2016-Dec-04 15:33N 38°57' E 117°58'8 8.2
2016-Dec-04 14:33N 38°55' E 118°08'9 7.4
2016-Dec-04 13:22N 38°53' E 118°19'10812.2
2016-Dec-04 04:33N 38°38' E 120°36'1211.9
2016-Dec-04 03:33N 38°37' E 120°51'9 9.2
2016-Dec-04 02:33N 38°34' E 121°02'1212.2
2016-Dec-04 01:33N 38°28' E 121°15'  

Dump ship's entire track history